sensor_id;sensor_type;location;lat;lon;timestamp;P1;durP1;ratioP1;P2;durP2;ratioP2
17451;SDS011;8843;48.838;9.324;2024-03-22T00:01:54;6.27;;;5.40;;
17451;SDS011;8843;48.838;9.324;2024-03-22T00:04:21;7.30;;;5.80;;
17451;SDS011;8843;48.838;9.324;2024-03-22T00:06:49;10.27;;;6.20;;
17451;SDS011;8843;48.838;9.324;2024-03-22T00:09:17;6.07;;;5.30;;
17451;SDS011;8843;48.838;9.324;2024-03-22T00:11:44;7.83;;;5.97;;
17451;SDS011;8843;48.838;9.324;2024-03-22T00:14:10;5.17;;;4.67;;
17451;SDS011;8843;48.838;9.324;2024-03-22T00:16:38;7.93;;;5.17;;
17451;SDS011;8843;48.838;9.324;2024-03-22T00:19:05;6.90;;;6.20;;
17451;SDS011;8843;48.838;9.324;2024-03-22T00:21:33;5.77;;;4.87;;
17451;SDS011;8843;48.838;9.324;2024-03-22T00:23:58;5.73;;;5.13;;
17451;SDS011;8843;48.838;9.324;2024-03-22T00:26:28;7.17;;;6.03;;
17451;SDS011;8843;48.838;9.324;2024-03-22T00:28:54;7.30;;;6.40;;
17451;SDS011;8843;48.838;9.324;2024-03-22T00:31:22;6.37;;;4.67;;
17451;SDS011;8843;48.838;9.324;2024-03-22T00:33:50;6.03;;;5.10;;
17451;SDS011;8843;48.838;9.324;2024-03-22T00:36:18;8.93;;;4.93;;
17451;SDS011;8843;48.838;9.324;2024-03-22T00:38:46;5.77;;;5.00;;
17451;SDS011;8843;48.838;9.324;2024-03-22T00:41:13;5.97;;;5.27;;
17451;SDS011;8843;48.838;9.324;2024-03-22T00:43:41;5.77;;;5.03;;
17451;SDS011;8843;48.838;9.324;2024-03-22T00:46:08;6.50;;;5.50;;
17451;SDS011;8843;48.838;9.324;2024-03-22T00:48:34;6.17;;;5.47;;
17451;SDS011;8843;48.838;9.324;2024-03-22T00:51:01;5.63;;;5.13;;
17451;SDS011;8843;48.838;9.324;2024-03-22T00:53:27;6.23;;;5.37;;
17451;SDS011;8843;48.838;9.324;2024-03-22T00:55:55;5.83;;;5.30;;
17451;SDS011;8843;48.838;9.324;2024-03-22T00:58:24;4.90;;;4.40;;
17451;SDS011;8843;48.838;9.324;2024-03-22T01:00:53;5.93;;;4.70;;
17451;SDS011;8843;48.838;9.324;2024-03-22T01:03:19;6.00;;;4.97;;
17451;SDS011;8843;48.838;9.324;2024-03-22T01:05:46;5.63;;;4.53;;
17451;SDS011;8843;48.838;9.324;2024-03-22T01:08:12;6.07;;;4.83;;
17451;SDS011;8843;48.838;9.324;2024-03-22T01:10:39;5.50;;;4.77;;
17451;SDS011;8843;48.838;9.324;2024-03-22T01:13:05;5.17;;;4.77;;
17451;SDS011;8843;48.838;9.324;2024-03-22T01:15:33;6.83;;;5.07;;
17451;SDS011;8843;48.838;9.324;2024-03-22T01:18:00;6.40;;;4.53;;
17451;SDS011;8843;48.838;9.324;2024-03-22T01:20:27;5.73;;;4.30;;
17451;SDS011;8843;48.838;9.324;2024-03-22T01:22:53;5.03;;;4.53;;
17451;SDS011;8843;48.838;9.324;2024-03-22T01:25:20;5.27;;;4.30;;
17451;SDS011;8843;48.838;9.324;2024-03-22T01:27:46;5.63;;;4.40;;
17451;SDS011;8843;48.838;9.324;2024-03-22T01:30:13;5.60;;;4.50;;
17451;SDS011;8843;48.838;9.324;2024-03-22T01:32:40;4.60;;;4.07;;
17451;SDS011;8843;48.838;9.324;2024-03-22T01:35:10;4.93;;;4.43;;
17451;SDS011;8843;48.838;9.324;2024-03-22T01:37:36;7.20;;;4.50;;
17451;SDS011;8843;48.838;9.324;2024-03-22T01:40:04;6.60;;;4.53;;
17451;SDS011;8843;48.838;9.324;2024-03-22T01:42:31;5.17;;;4.57;;
17451;SDS011;8843;48.838;9.324;2024-03-22T01:44:58;4.70;;;4.17;;
17451;SDS011;8843;48.838;9.324;2024-03-22T01:47:24;5.33;;;4.80;;
17451;SDS011;8843;48.838;9.324;2024-03-22T01:49:52;5.90;;;4.77;;
17451;SDS011;8843;48.838;9.324;2024-03-22T01:52:22;4.73;;;3.87;;
17451;SDS011;8843;48.838;9.324;2024-03-22T01:54:50;5.97;;;4.30;;
17451;SDS011;8843;48.838;9.324;2024-03-22T01:57:17;6.33;;;4.10;;
17451;SDS011;8843;48.838;9.324;2024-03-22T01:59:44;5.23;;;4.43;;
17451;SDS011;8843;48.838;9.324;2024-03-22T02:02:13;5.37;;;4.27;;
17451;SDS011;8843;48.838;9.324;2024-03-22T02:04:42;6.03;;;4.53;;
17451;SDS011;8843;48.838;9.324;2024-03-22T02:07:08;5.77;;;4.50;;
17451;SDS011;8843;48.838;9.324;2024-03-22T02:09:36;6.23;;;4.87;;
17451;SDS011;8843;48.838;9.324;2024-03-22T02:12:02;5.77;;;4.73;;
17451;SDS011;8843;48.838;9.324;2024-03-22T02:14:30;4.67;;;4.23;;
17451;SDS011;8843;48.838;9.324;2024-03-22T02:16:56;6.10;;;4.57;;
17451;SDS011;8843;48.838;9.324;2024-03-22T02:19:23;7.60;;;4.40;;
17451;SDS011;8843;48.838;9.324;2024-03-22T02:21:49;4.80;;;4.37;;
17451;SDS011;8843;48.838;9.324;2024-03-22T02:24:18;4.73;;;4.00;;
17451;SDS011;8843;48.838;9.324;2024-03-22T02:26:45;5.03;;;4.23;;
17451;SDS011;8843;48.838;9.324;2024-03-22T02:29:12;7.23;;;4.50;;
17451;SDS011;8843;48.838;9.324;2024-03-22T02:31:38;5.73;;;4.10;;
17451;SDS011;8843;48.838;9.324;2024-03-22T02:34:05;5.03;;;4.27;;
17451;SDS011;8843;48.838;9.324;2024-03-22T02:36:31;3.97;;;3.57;;
17451;SDS011;8843;48.838;9.324;2024-03-22T02:38:58;6.90;;;4.40;;
17451;SDS011;8843;48.838;9.324;2024-03-22T02:41:25;5.73;;;4.47;;
17451;SDS011;8843;48.838;9.324;2024-03-22T02:43:52;4.37;;;3.87;;
17451;SDS011;8843;48.838;9.324;2024-03-22T02:46:20;5.27;;;4.10;;
17451;SDS011;8843;48.838;9.324;2024-03-22T02:48:47;5.43;;;4.90;;
17451;SDS011;8843;48.838;9.324;2024-03-22T02:51:13;6.47;;;4.67;;
17451;SDS011;8843;48.838;9.324;2024-03-22T02:53:41;6.23;;;4.83;;
17451;SDS011;8843;48.838;9.324;2024-03-22T02:56:07;4.83;;;4.33;;
17451;SDS011;8843;48.838;9.324;2024-03-22T02:58:37;5.00;;;4.47;;
17451;SDS011;8843;48.838;9.324;2024-03-22T03:01:03;5.87;;;4.80;;
17451;SDS011;8843;48.838;9.324;2024-03-22T03:03:31;6.10;;;4.77;;
17451;SDS011;8843;48.838;9.324;2024-03-22T03:05:56;6.87;;;4.30;;
17451;SDS011;8843;48.838;9.324;2024-03-22T03:08:24;7.07;;;5.20;;
17451;SDS011;8843;48.838;9.324;2024-03-22T03:10:50;5.13;;;4.40;;
17451;SDS011;8843;48.838;9.324;2024-03-22T03:13:17;6.73;;;4.50;;
17451;SDS011;8843;48.838;9.324;2024-03-22T03:15:45;6.27;;;4.50;;
17451;SDS011;8843;48.838;9.324;2024-03-22T03:18:13;7.03;;;4.77;;
17451;SDS011;8843;48.838;9.324;2024-03-22T03:20:39;8.60;;;5.03;;
17451;SDS011;8843;48.838;9.324;2024-03-22T03:23:06;5.17;;;4.57;;
17451;SDS011;8843;48.838;9.324;2024-03-22T03:25:32;8.03;;;4.73;;
17451;SDS011;8843;48.838;9.324;2024-03-22T03:27:59;5.13;;;4.63;;
17451;SDS011;8843;48.838;9.324;2024-03-22T03:30:24;5.23;;;4.57;;
17451;SDS011;8843;48.838;9.324;2024-03-22T03:32:53;8.03;;;4.20;;
17451;SDS011;8843;48.838;9.324;2024-03-22T03:35:20;7.30;;;4.63;;
17451;SDS011;8843;48.838;9.324;2024-03-22T03:37:46;5.37;;;4.87;;
17451;SDS011;8843;48.838;9.324;2024-03-22T03:40:13;5.93;;;3.97;;
17451;SDS011;8843;48.838;9.324;2024-03-22T03:42:40;5.00;;;4.27;;
17451;SDS011;8843;48.838;9.324;2024-03-22T03:45:07;5.43;;;4.43;;
17451;SDS011;8843;48.838;9.324;2024-03-22T03:47:35;6.43;;;4.50;;
17451;SDS011;8843;48.838;9.324;2024-03-22T03:50:02;8.83;;;5.50;;
17451;SDS011;8843;48.838;9.324;2024-03-22T03:52:30;5.87;;;4.40;;
17451;SDS011;8843;48.838;9.324;2024-03-22T03:54:56;5.13;;;4.63;;
17451;SDS011;8843;48.838;9.324;2024-03-22T03:57:23;5.13;;;4.33;;
17451;SDS011;8843;48.838;9.324;2024-03-22T03:59:49;7.60;;;5.37;;
17451;SDS011;8843;48.838;9.324;2024-03-22T04:02:17;8.73;;;5.10;;
17451;SDS011;8843;48.838;9.324;2024-03-22T04:04:43;5.53;;;4.63;;
17451;SDS011;8843;48.838;9.324;2024-03-22T04:07:12;5.33;;;4.83;;
17451;SDS011;8843;48.838;9.324;2024-03-22T04:09:38;6.53;;;5.00;;
17451;SDS011;8843;48.838;9.324;2024-03-22T04:12:05;5.33;;;4.83;;
17451;SDS011;8843;48.838;9.324;2024-03-22T04:14:32;6.63;;;4.60;;
17451;SDS011;8843;48.838;9.324;2024-03-22T04:17:00;6.17;;;4.60;;
17451;SDS011;8843;48.838;9.324;2024-03-22T04:19:26;8.93;;;5.27;;
17451;SDS011;8843;48.838;9.324;2024-03-22T04:21:53;7.07;;;5.00;;
17451;SDS011;8843;48.838;9.324;2024-03-22T04:24:21;6.33;;;5.27;;
17451;SDS011;8843;48.838;9.324;2024-03-22T04:26:48;6.57;;;5.73;;
17451;SDS011;8843;48.838;9.324;2024-03-22T04:29:14;6.77;;;5.83;;
17451;SDS011;8843;48.838;9.324;2024-03-22T04:31:43;7.03;;;5.57;;
17451;SDS011;8843;48.838;9.324;2024-03-22T04:34:09;6.83;;;5.57;;
17451;SDS011;8843;48.838;9.324;2024-03-22T04:36:36;5.80;;;5.17;;
17451;SDS011;8843;48.838;9.324;2024-03-22T04:39:02;7.13;;;5.20;;
17451;SDS011;8843;48.838;9.324;2024-03-22T04:41:31;5.37;;;4.80;;
17451;SDS011;8843;48.838;9.324;2024-03-22T04:43:58;8.00;;;5.07;;
17451;SDS011;8843;48.838;9.324;2024-03-22T04:46:25;6.87;;;4.60;;
17451;SDS011;8843;48.838;9.324;2024-03-22T04:48:51;7.00;;;4.80;;
17451;SDS011;8843;48.838;9.324;2024-03-22T04:51:19;5.77;;;4.90;;
17451;SDS011;8843;48.838;9.324;2024-03-22T04:53:45;6.00;;;5.07;;
17451;SDS011;8843;48.838;9.324;2024-03-22T04:56:12;5.17;;;4.67;;
17451;SDS011;8843;48.838;9.324;2024-03-22T04:58:40;6.63;;;4.97;;
17451;SDS011;8843;48.838;9.324;2024-03-22T05:01:07;6.37;;;4.70;;
17451;SDS011;8843;48.838;9.324;2024-03-22T05:03:34;5.27;;;4.60;;
17451;SDS011;8843;48.838;9.324;2024-03-22T05:06:01;5.30;;;4.00;;
17451;SDS011;8843;48.838;9.324;2024-03-22T05:08:28;4.70;;;3.90;;
17451;SDS011;8843;48.838;9.324;2024-03-22T05:10:55;5.37;;;4.87;;
17451;SDS011;8843;48.838;9.324;2024-03-22T05:13:22;6.17;;;4.50;;
17451;SDS011;8843;48.838;9.324;2024-03-22T05:15:51;6.70;;;5.17;;
17451;SDS011;8843;48.838;9.324;2024-03-22T05:18:17;6.20;;;4.63;;
17451;SDS011;8843;48.838;9.324;2024-03-22T05:20:45;6.03;;;4.53;;
17451;SDS011;8843;48.838;9.324;2024-03-22T05:23:12;4.67;;;4.20;;
17451;SDS011;8843;48.838;9.324;2024-03-22T05:25:41;5.83;;;5.07;;
17451;SDS011;8843;48.838;9.324;2024-03-22T05:28:07;6.33;;;5.43;;
17451;SDS011;8843;48.838;9.324;2024-03-22T05:30:34;5.80;;;4.70;;
17451;SDS011;8843;48.838;9.324;2024-03-22T05:33:02;7.03;;;4.90;;
17451;SDS011;8843;48.838;9.324;2024-03-22T05:35:29;5.87;;;4.73;;
17451;SDS011;8843;48.838;9.324;2024-03-22T05:37:55;7.10;;;4.67;;
17451;SDS011;8843;48.838;9.324;2024-03-22T05:40:22;10.77;;;7.00;;
17451;SDS011;8843;48.838;9.324;2024-03-22T05:42:50;12.47;;;6.20;;
17451;SDS011;8843;48.838;9.324;2024-03-22T05:45:17;11.93;;;6.10;;
17451;SDS011;8843;48.838;9.324;2024-03-22T05:47:43;8.50;;;5.53;;
17451;SDS011;8843;48.838;9.324;2024-03-22T05:50:11;7.60;;;5.43;;
17451;SDS011;8843;48.838;9.324;2024-03-22T05:52:39;15.13;;;6.07;;
17451;SDS011;8843;48.838;9.324;2024-03-22T05:55:07;11.27;;;6.10;;
17451;SDS011;8843;48.838;9.324;2024-03-22T05:57:33;14.37;;;5.90;;
17451;SDS011;8843;48.838;9.324;2024-03-22T06:00:00;12.33;;;6.20;;
17451;SDS011;8843;48.838;9.324;2024-03-22T06:02:28;8.20;;;6.03;;
17451;SDS011;8843;48.838;9.324;2024-03-22T06:04:56;8.80;;;5.80;;
17451;SDS011;8843;48.838;9.324;2024-03-22T06:07:25;6.07;;;5.07;;
17451;SDS011;8843;48.838;9.324;2024-03-22T06:09:52;11.03;;;5.77;;
17451;SDS011;8843;48.838;9.324;2024-03-22T06:12:18;8.23;;;5.73;;
17451;SDS011;8843;48.838;9.324;2024-03-22T06:14:47;8.10;;;5.07;;
17451;SDS011;8843;48.838;9.324;2024-03-22T06:17:14;8.33;;;5.80;;
17451;SDS011;8843;48.838;9.324;2024-03-22T06:19:43;8.17;;;5.93;;
17451;SDS011;8843;48.838;9.324;2024-03-22T06:22:09;9.90;;;5.67;;
17451;SDS011;8843;48.838;9.324;2024-03-22T06:24:38;7.30;;;6.03;;
17451;SDS011;8843;48.838;9.324;2024-03-22T06:27:04;11.17;;;6.40;;
17451;SDS011;8843;48.838;9.324;2024-03-22T06:29:32;9.60;;;6.73;;
17451;SDS011;8843;48.838;9.324;2024-03-22T06:31:58;8.40;;;6.43;;
17451;SDS011;8843;48.838;9.324;2024-03-22T06:34:25;9.77;;;6.13;;
17451;SDS011;8843;48.838;9.324;2024-03-22T06:36:51;10.47;;;6.60;;
17451;SDS011;8843;48.838;9.324;2024-03-22T06:39:19;8.63;;;5.20;;
17451;SDS011;8843;48.838;9.324;2024-03-22T06:41:46;8.00;;;5.60;;
17451;SDS011;8843;48.838;9.324;2024-03-22T06:44:13;8.97;;;6.70;;
17451;SDS011;8843;48.838;9.324;2024-03-22T06:46:39;9.53;;;6.47;;
17451;SDS011;8843;48.838;9.324;2024-03-22T06:49:07;8.13;;;6.30;;
17451;SDS011;8843;48.838;9.324;2024-03-22T06:51:33;7.27;;;5.80;;
17451;SDS011;8843;48.838;9.324;2024-03-22T06:54:00;8.70;;;6.27;;
17451;SDS011;8843;48.838;9.324;2024-03-22T06:56:26;8.40;;;6.33;;
17451;SDS011;8843;48.838;9.324;2024-03-22T06:58:56;10.37;;;6.00;;
17451;SDS011;8843;48.838;9.324;2024-03-22T07:01:22;8.13;;;5.93;;
17451;SDS011;8843;48.838;9.324;2024-03-22T07:03:49;8.23;;;6.17;;
17451;SDS011;8843;48.838;9.324;2024-03-22T07:06:15;8.33;;;5.60;;
17451;SDS011;8843;48.838;9.324;2024-03-22T07:08:42;8.57;;;6.10;;
17451;SDS011;8843;48.838;9.324;2024-03-22T07:11:08;8.43;;;6.13;;
17451;SDS011;8843;48.838;9.324;2024-03-22T07:13:36;7.07;;;6.07;;
17451;SDS011;8843;48.838;9.324;2024-03-22T07:16:04;8.77;;;5.63;;
17451;SDS011;8843;48.838;9.324;2024-03-22T07:18:31;7.77;;;6.40;;
17451;SDS011;8843;48.838;9.324;2024-03-22T07:20:57;11.83;;;6.40;;
17451;SDS011;8843;48.838;9.324;2024-03-22T07:23:26;8.10;;;7.13;;
17451;SDS011;8843;48.838;9.324;2024-03-22T07:25:52;8.40;;;6.43;;
17451;SDS011;8843;48.838;9.324;2024-03-22T07:28:19;10.33;;;7.03;;
17451;SDS011;8843;48.838;9.324;2024-03-22T07:30:46;8.77;;;6.93;;
17451;SDS011;8843;48.838;9.324;2024-03-22T07:33:15;9.63;;;7.03;;
17451;SDS011;8843;48.838;9.324;2024-03-22T07:35:42;10.50;;;7.10;;
17451;SDS011;8843;48.838;9.324;2024-03-22T07:38:10;9.17;;;7.53;;
17451;SDS011;8843;48.838;9.324;2024-03-22T07:40:36;9.27;;;7.63;;
17451;SDS011;8843;48.838;9.324;2024-03-22T07:43:03;9.97;;;7.70;;
17451;SDS011;8843;48.838;9.324;2024-03-22T07:45:32;8.23;;;7.13;;
17451;SDS011;8843;48.838;9.324;2024-03-22T07:48:02;9.00;;;7.50;;
17451;SDS011;8843;48.838;9.324;2024-03-22T07:50:29;10.23;;;7.60;;
17451;SDS011;8843;48.838;9.324;2024-03-22T07:52:56;12.53;;;7.93;;
17451;SDS011;8843;48.838;9.324;2024-03-22T07:55:22;12.50;;;8.40;;
17451;SDS011;8843;48.838;9.324;2024-03-22T07:57:50;11.33;;;8.47;;
17451;SDS011;8843;48.838;9.324;2024-03-22T08:00:16;11.67;;;8.03;;
17451;SDS011;8843;48.838;9.324;2024-03-22T08:02:44;10.77;;;8.23;;
17451;SDS011;8843;48.838;9.324;2024-03-22T08:05:10;8.90;;;7.60;;
17451;SDS011;8843;48.838;9.324;2024-03-22T08:07:38;10.67;;;7.50;;
17451;SDS011;8843;48.838;9.324;2024-03-22T08:10:05;9.90;;;7.53;;
17451;SDS011;8843;48.838;9.324;2024-03-22T08:12:33;11.00;;;7.90;;
17451;SDS011;8843;48.838;9.324;2024-03-22T08:14:59;9.23;;;7.83;;
17451;SDS011;8843;48.838;9.324;2024-03-22T08:17:26;12.07;;;8.40;;
17451;SDS011;8843;48.838;9.324;2024-03-22T08:19:52;12.13;;;8.03;;
17451;SDS011;8843;48.838;9.324;2024-03-22T08:22:20;10.27;;;8.13;;
17451;SDS011;8843;48.838;9.324;2024-03-22T08:24:47;18.90;;;8.13;;
17451;SDS011;8843;48.838;9.324;2024-03-22T08:27:15;11.67;;;7.70;;
17451;SDS011;8843;48.838;9.324;2024-03-22T08:29:41;13.13;;;7.73;;
17451;SDS011;8843;48.838;9.324;2024-03-22T08:32:08;10.73;;;7.63;;
17451;SDS011;8843;48.838;9.324;2024-03-22T08:34:35;10.93;;;7.57;;
17451;SDS011;8843;48.838;9.324;2024-03-22T08:37:02;11.17;;;8.47;;
17451;SDS011;8843;48.838;9.324;2024-03-22T08:39:29;12.77;;;8.73;;
17451;SDS011;8843;48.838;9.324;2024-03-22T08:41:57;10.63;;;7.10;;
17451;SDS011;8843;48.838;9.324;2024-03-22T08:44:23;11.67;;;8.07;;
17451;SDS011;8843;48.838;9.324;2024-03-22T08:46:52;9.73;;;8.13;;
17451;SDS011;8843;48.838;9.324;2024-03-22T08:49:17;13.43;;;8.20;;
17451;SDS011;8843;48.838;9.324;2024-03-22T08:51:45;12.40;;;8.00;;
17451;SDS011;8843;48.838;9.324;2024-03-22T08:54:13;11.63;;;7.77;;
17451;SDS011;8843;48.838;9.324;2024-03-22T08:56:40;13.00;;;9.03;;
17451;SDS011;8843;48.838;9.324;2024-03-22T08:59:07;12.30;;;8.43;;
17451;SDS011;8843;48.838;9.324;2024-03-22T09:01:35;9.30;;;7.77;;
17451;SDS011;8843;48.838;9.324;2024-03-22T09:04:01;10.57;;;7.63;;
17451;SDS011;8843;48.838;9.324;2024-03-22T09:06:28;10.30;;;8.40;;
17451;SDS011;8843;48.838;9.324;2024-03-22T09:08:54;12.03;;;8.17;;
17451;SDS011;8843;48.838;9.324;2024-03-22T09:11:23;11.43;;;8.17;;
17451;SDS011;8843;48.838;9.324;2024-03-22T09:13:51;11.00;;;8.43;;
17451;SDS011;8843;48.838;9.324;2024-03-22T09:16:21;12.87;;;8.33;;
17451;SDS011;8843;48.838;9.324;2024-03-22T09:18:48;11.30;;;8.60;;
17451;SDS011;8843;48.838;9.324;2024-03-22T09:21:16;10.20;;;8.53;;
17451;SDS011;8843;48.838;9.324;2024-03-22T09:23:42;11.83;;;8.97;;
17451;SDS011;8843;48.838;9.324;2024-03-22T09:26:09;14.00;;;8.50;;
17451;SDS011;8843;48.838;9.324;2024-03-22T09:28:35;8.93;;;7.73;;
17451;SDS011;8843;48.838;9.324;2024-03-22T09:31:05;11.20;;;8.17;;
17451;SDS011;8843;48.838;9.324;2024-03-22T09:33:34;12.13;;;8.17;;
17451;SDS011;8843;48.838;9.324;2024-03-22T09:36:01;12.37;;;8.50;;
17451;SDS011;8843;48.838;9.324;2024-03-22T09:38:29;9.50;;;8.00;;
17451;SDS011;8843;48.838;9.324;2024-03-22T09:40:55;14.53;;;7.93;;
17451;SDS011;8843;48.838;9.324;2024-03-22T09:43:22;12.27;;;8.73;;
17451;SDS011;8843;48.838;9.324;2024-03-22T09:45:49;11.63;;;8.83;;
17451;SDS011;8843;48.838;9.324;2024-03-22T09:48:16;13.47;;;9.23;;
17451;SDS011;8843;48.838;9.324;2024-03-22T09:50:45;11.20;;;7.90;;
17451;SDS011;8843;48.838;9.324;2024-03-22T09:53:13;12.60;;;9.00;;
17451;SDS011;8843;48.838;9.324;2024-03-22T09:55:42;15.00;;;9.03;;
17451;SDS011;8843;48.838;9.324;2024-03-22T09:58:10;16.03;;;9.83;;
17451;SDS011;8843;48.838;9.324;2024-03-22T10:00:36;10.93;;;8.53;;
17451;SDS011;8843;48.838;9.324;2024-03-22T10:03:03;9.17;;;7.77;;
17451;SDS011;8843;48.838;9.324;2024-03-22T10:05:30;10.90;;;8.30;;
17451;SDS011;8843;48.838;9.324;2024-03-22T10:07:59;13.03;;;8.20;;
17451;SDS011;8843;48.838;9.324;2024-03-22T10:10:25;9.50;;;6.93;;
17451;SDS011;8843;48.838;9.324;2024-03-22T10:12:52;8.67;;;7.40;;
17451;SDS011;8843;48.838;9.324;2024-03-22T10:15:18;11.37;;;7.37;;
17451;SDS011;8843;48.838;9.324;2024-03-22T10:17:46;7.77;;;6.73;;
17451;SDS011;8843;48.838;9.324;2024-03-22T10:20:12;9.90;;;7.30;;
17451;SDS011;8843;48.838;9.324;2024-03-22T10:22:41;9.63;;;6.40;;
17451;SDS011;8843;48.838;9.324;2024-03-22T10:25:09;8.83;;;6.20;;
17451;SDS011;8843;48.838;9.324;2024-03-22T10:27:38;7.53;;;6.60;;
17451;SDS011;8843;48.838;9.324;2024-03-22T10:30:06;9.67;;;5.97;;
17451;SDS011;8843;48.838;9.324;2024-03-22T10:32:36;8.43;;;6.40;;
17451;SDS011;8843;48.838;9.324;2024-03-22T10:35:02;7.83;;;6.37;;
17451;SDS011;8843;48.838;9.324;2024-03-22T10:37:31;9.07;;;6.67;;
17451;SDS011;8843;48.838;9.324;2024-03-22T10:39:57;13.97;;;6.73;;
17451;SDS011;8843;48.838;9.324;2024-03-22T10:42:29;9.53;;;6.20;;
17451;SDS011;8843;48.838;9.324;2024-03-22T10:44:55;9.50;;;5.97;;
17451;SDS011;8843;48.838;9.324;2024-03-22T10:47:24;7.27;;;6.13;;
17451;SDS011;8843;48.838;9.324;2024-03-22T10:49:56;10.70;;;6.40;;
17451;SDS011;8843;48.838;9.324;2024-03-22T10:52:29;8.27;;;6.33;;
17451;SDS011;8843;48.838;9.324;2024-03-22T10:54:58;6.60;;;5.83;;
17451;SDS011;8843;48.838;9.324;2024-03-22T10:57:25;6.87;;;6.07;;
17451;SDS011;8843;48.838;9.324;2024-03-22T10:59:56;8.77;;;6.40;;
17451;SDS011;8843;48.838;9.324;2024-03-22T11:02:23;9.43;;;5.80;;
17451;SDS011;8843;48.838;9.324;2024-03-22T11:04:54;9.97;;;7.07;;
17451;SDS011;8843;48.838;9.324;2024-03-22T11:07:28;6.40;;;5.73;;
17451;SDS011;8843;48.838;9.324;2024-03-22T11:09:56;7.97;;;6.10;;
17451;SDS011;8843;48.838;9.324;2024-03-22T11:12:24;10.07;;;5.50;;
17451;SDS011;8843;48.838;9.324;2024-03-22T11:14:52;9.17;;;4.97;;
17451;SDS011;8843;48.838;9.324;2024-03-22T11:17:19;6.43;;;4.93;;
17451;SDS011;8843;48.838;9.324;2024-03-22T11:19:50;8.83;;;5.47;;
17451;SDS011;8843;48.838;9.324;2024-03-22T11:22:16;7.10;;;5.03;;
17451;SDS011;8843;48.838;9.324;2024-03-22T11:24:43;8.93;;;5.53;;
17451;SDS011;8843;48.838;9.324;2024-03-22T11:27:09;7.17;;;4.90;;
17451;SDS011;8843;48.838;9.324;2024-03-22T11:29:37;5.70;;;4.77;;
17451;SDS011;8843;48.838;9.324;2024-03-22T11:32:06;6.30;;;5.17;;
17451;SDS011;8843;48.838;9.324;2024-03-22T11:34:36;5.40;;;4.90;;
17451;SDS011;8843;48.838;9.324;2024-03-22T11:37:04;8.67;;;5.10;;
17451;SDS011;8843;48.838;9.324;2024-03-22T11:39:32;6.93;;;4.80;;
17451;SDS011;8843;48.838;9.324;2024-03-22T11:42:00;9.80;;;6.27;;
17451;SDS011;8843;48.838;9.324;2024-03-22T11:44:27;6.00;;;5.00;;
17451;SDS011;8843;48.838;9.324;2024-03-22T11:46:54;7.33;;;5.10;;
17451;SDS011;8843;48.838;9.324;2024-03-22T11:49:23;7.37;;;5.17;;
17451;SDS011;8843;48.838;9.324;2024-03-22T11:51:52;6.13;;;4.43;;
17451;SDS011;8843;48.838;9.324;2024-03-22T11:54:20;7.50;;;5.43;;
17451;SDS011;8843;48.838;9.324;2024-03-22T11:56:46;5.30;;;4.03;;
17451;SDS011;8843;48.838;9.324;2024-03-22T11:59:14;8.20;;;5.23;;
17451;SDS011;8843;48.838;9.324;2024-03-22T12:01:41;7.67;;;4.97;;
17451;SDS011;8843;48.838;9.324;2024-03-22T12:04:07;8.77;;;5.23;;
17451;SDS011;8843;48.838;9.324;2024-03-22T12:06:40;6.27;;;5.17;;
17451;SDS011;8843;48.838;9.324;2024-03-22T12:09:08;7.63;;;5.70;;
17451;SDS011;8843;48.838;9.324;2024-03-22T12:11:37;7.97;;;5.60;;
17451;SDS011;8843;48.838;9.324;2024-03-22T12:14:04;6.33;;;4.97;;
17451;SDS011;8843;48.838;9.324;2024-03-22T12:16:31;5.23;;;4.30;;
17451;SDS011;8843;48.838;9.324;2024-03-22T12:18:57;8.00;;;5.00;;
17451;SDS011;8843;48.838;9.324;2024-03-22T12:21:26;7.23;;;4.73;;
17451;SDS011;8843;48.838;9.324;2024-03-22T12:23:52;6.53;;;4.70;;
17451;SDS011;8843;48.838;9.324;2024-03-22T12:26:20;6.23;;;4.90;;
17451;SDS011;8843;48.838;9.324;2024-03-22T12:28:46;7.30;;;4.97;;
17451;SDS011;8843;48.838;9.324;2024-03-22T12:31:16;5.93;;;4.73;;
17451;SDS011;8843;48.838;9.324;2024-03-22T12:33:44;6.13;;;3.97;;
17451;SDS011;8843;48.838;9.324;2024-03-22T12:36:11;6.83;;;5.00;;
17451;SDS011;8843;48.838;9.324;2024-03-22T12:38:36;4.77;;;4.27;;
17451;SDS011;8843;48.838;9.324;2024-03-22T12:41:04;5.17;;;4.30;;
17451;SDS011;8843;48.838;9.324;2024-03-22T12:43:32;6.53;;;4.37;;
17451;SDS011;8843;48.838;9.324;2024-03-22T12:46:00;5.43;;;3.93;;
17451;SDS011;8843;48.838;9.324;2024-03-22T12:48:26;6.77;;;4.40;;
17451;SDS011;8843;48.838;9.324;2024-03-22T12:50:53;5.30;;;3.73;;
17451;SDS011;8843;48.838;9.324;2024-03-22T12:53:18;6.40;;;4.10;;
17451;SDS011;8843;48.838;9.324;2024-03-22T12:55:45;5.60;;;4.03;;
17451;SDS011;8843;48.838;9.324;2024-03-22T12:58:11;6.47;;;4.03;;
17451;SDS011;8843;48.838;9.324;2024-03-22T13:00:40;6.97;;;4.40;;
17451;SDS011;8843;48.838;9.324;2024-03-22T13:03:06;4.80;;;4.30;;
17451;SDS011;8843;48.838;9.324;2024-03-22T13:05:35;10.60;;;4.00;;
17451;SDS011;8843;48.838;9.324;2024-03-22T13:08:01;6.77;;;3.33;;
17451;SDS011;8843;48.838;9.324;2024-03-22T13:10:28;5.03;;;3.90;;
17451;SDS011;8843;48.838;9.324;2024-03-22T13:12:54;6.60;;;3.90;;
17451;SDS011;8843;48.838;9.324;2024-03-22T13:15:23;6.00;;;4.13;;
17451;SDS011;8843;48.838;9.324;2024-03-22T13:17:52;5.60;;;4.20;;
17451;SDS011;8843;48.838;9.324;2024-03-22T13:20:21;5.30;;;3.77;;
17451;SDS011;8843;48.838;9.324;2024-03-22T13:22:47;6.50;;;3.73;;
17451;SDS011;8843;48.838;9.324;2024-03-22T13:25:14;8.47;;;4.50;;
17451;SDS011;8843;48.838;9.324;2024-03-22T13:27:40;5.93;;;3.87;;
17451;SDS011;8843;48.838;9.324;2024-03-22T13:30:08;4.97;;;3.90;;
17451;SDS011;8843;48.838;9.324;2024-03-22T13:32:35;5.00;;;3.63;;
17451;SDS011;8843;48.838;9.324;2024-03-22T13:35:04;11.40;;;3.83;;
17451;SDS011;8843;48.838;9.324;2024-03-22T13:37:31;5.30;;;3.60;;
17451;SDS011;8843;48.838;9.324;2024-03-22T13:39:58;4.83;;;3.53;;
17451;SDS011;8843;48.838;9.324;2024-03-22T13:42:24;5.20;;;3.80;;
17451;SDS011;8843;48.838;9.324;2024-03-22T13:44:52;7.67;;;4.40;;
17451;SDS011;8843;48.838;9.324;2024-03-22T13:47:18;4.77;;;3.40;;
17451;SDS011;8843;48.838;9.324;2024-03-22T13:49:46;4.33;;;3.40;;
17451;SDS011;8843;48.838;9.324;2024-03-22T13:52:13;4.13;;;3.30;;
17451;SDS011;8843;48.838;9.324;2024-03-22T13:54:40;5.40;;;3.23;;
17451;SDS011;8843;48.838;9.324;2024-03-22T13:57:06;4.33;;;3.40;;
17451;SDS011;8843;48.838;9.324;2024-03-22T13:59:33;4.13;;;3.10;;
17451;SDS011;8843;48.838;9.324;2024-03-22T14:02:00;4.53;;;3.23;;
17451;SDS011;8843;48.838;9.324;2024-03-22T14:04:28;7.40;;;3.60;;
17451;SDS011;8843;48.838;9.324;2024-03-22T14:06:55;4.80;;;2.90;;
17451;SDS011;8843;48.838;9.324;2024-03-22T14:09:24;7.03;;;3.60;;
17451;SDS011;8843;48.838;9.324;2024-03-22T14:11:51;5.90;;;3.47;;
17451;SDS011;8843;48.838;9.324;2024-03-22T14:14:18;3.87;;;3.00;;
17451;SDS011;8843;48.838;9.324;2024-03-22T14:16:44;6.00;;;3.03;;
17451;SDS011;8843;48.838;9.324;2024-03-22T14:19:11;5.17;;;3.60;;
17451;SDS011;8843;48.838;9.324;2024-03-22T14:21:37;7.10;;;3.57;;
17451;SDS011;8843;48.838;9.324;2024-03-22T14:24:04;3.87;;;3.10;;
17451;SDS011;8843;48.838;9.324;2024-03-22T14:26:32;6.17;;;3.83;;
17451;SDS011;8843;48.838;9.324;2024-03-22T14:28:59;6.93;;;3.20;;
17451;SDS011;8843;48.838;9.324;2024-03-22T14:31:26;4.47;;;3.77;;
17451;SDS011;8843;48.838;9.324;2024-03-22T14:33:54;3.70;;;3.30;;
17451;SDS011;8843;48.838;9.324;2024-03-22T14:36:20;5.53;;;3.30;;
17451;SDS011;8843;48.838;9.324;2024-03-22T14:38:48;6.03;;;3.60;;
17451;SDS011;8843;48.838;9.324;2024-03-22T14:41:14;4.47;;;3.47;;
17451;SDS011;8843;48.838;9.324;2024-03-22T14:43:43;4.87;;;3.27;;
17451;SDS011;8843;48.838;9.324;2024-03-22T14:46:09;8.30;;;3.97;;
17451;SDS011;8843;48.838;9.324;2024-03-22T14:48:38;4.87;;;3.20;;
17451;SDS011;8843;48.838;9.324;2024-03-22T14:51:04;6.97;;;3.20;;
17451;SDS011;8843;48.838;9.324;2024-03-22T14:53:32;5.60;;;3.33;;
17451;SDS011;8843;48.838;9.324;2024-03-22T14:55:58;6.87;;;3.40;;
17451;SDS011;8843;48.838;9.324;2024-03-22T14:58:29;3.87;;;2.90;;